Etusivu
METAR-TAF:

METAR-TAF

Lentoasemat :

Repulse Bayn lentoasema

Repulse Bay, Nunavut, Kanada

Leveyspiiri: 66-32N, Pituuspiiri: 086-15W, korkeus merenpinnasta: 24 m

Tämänhetkinen sää

Tämä raportti tehtiin 12 tuntia ja 22 minuuttia sitten, kello 23.00 UTC
Tuuli 8 kn luoteesta
Lämpötila -29°C
Kosteus 68%
Ilmanpaine 1032 hPa
Näkyvyys: 16.1 km
selkeää

METAR: CYUT 252300Z 32008KT 10SM SKC M29/M33 A3047 RMK S00 AFT 18Z /03/ LAST STFD OBS/NXT 261300Z SLP322

Aika: 05:22 (11:22 UTC)

Sääennuste

Tämä raportti tehtiin 16 tuntia ja 44 minuuttia sitten, kello 18.38 UTC
Ennuste voimassa 25. päivästä klo 19 UTC - 25. päivään klo 23 UTC
Tuuli 8 kn luoteesta
Näkyvyys: 10 km
Muutamia pilviä 5000 ft:n korkeudessa

TAF: CYUT 251838Z 2519/2523 31008KT P6SM FEW050 RMK NXT FCST WILL BE ISSUED AT 261445Z

Säähavainnot ja -ennusteet yli 4000 lentoasemalta (METAR- ja TAF-raportit).

Käytössä olevat sääasemat on merkitty karttaan keltaisilla ja punaisilla pisteillä.

Aseta hiiri pisteen päälle nähdäksesi sääaseman nimen.

Klikkaa sitten nähdäksesi säähavainnot ja -ennusteet.

Kartan vaihtaminen: klikkaa mustalla rastilla varustettuja vihreitä pisteitä, niin voit zoomata sisään; viivalla varustettua vihreää pistettä, niin voit zoomata ulos tai vihreitä nuolia, niin pääset viereisille kartoille.


METAR-TAF: